Time;durP1;ratioP1;P1;durP2;ratioP2;P2;SDS_P1;SDS_P2;PMS_P1;PMS_P2;Temp;Humidity;BMP_temperature;BMP_pressure;BME280_temperature;BME280_humidity;BME280_pressure;Samples;Min_cycle;Max_cycle;Signal;HPM_P1;HPM_P2
2024/02/22 00:00:59;;;;;;;4.93;3.20;;;;;;;8.50;100.00;96023.63;5015309;28;20117;-70
2024/02/22 00:03:25;;;;;;;6.95;3.67;;;;;;;8.42;100.00;96026.28;4995356;28;20119;-69
2024/02/22 00:05:50;;;;;;;4.32;3.35;;;;;;;8.59;100.00;96016.75;4999461;28;20060;-69
2024/02/22 00:08:16;;;;;;;6.90;2.90;;;;;;;8.94;100.00;96025.78;4985679;28;20065;-70
2024/02/22 00:10:41;;;;;;;6.68;2.40;;;;;;;9.17;96.90;96020.97;4986054;28;20134;-70
2024/02/22 00:13:07;;;;;;;5.13;2.13;;;;;;;9.55;89.75;96032.66;4991991;28;20488;-70
2024/02/22 00:15:32;;;;;;;6.10;2.28;;;;;;;9.83;85.36;96027.81;5000019;28;20071;-69
2024/02/22 00:17:58;;;;;;;5.80;2.30;;;;;;;10.07;80.82;96029.97;4991715;28;20042;-69
2024/02/22 00:20:23;;;;;;;8.15;2.47;;;;;;;10.30;77.34;96010.59;4985827;28;20038;-69
2024/02/22 00:22:48;;;;;;;7.82;2.00;;;;;;;10.46;75.04;96029.50;4991671;28;20061;-69
2024/02/22 00:25:15;;;;;;;7.63;2.17;;;;;;;10.49;74.39;96025.19;4983142;28;20050;-70
2024/02/22 00:27:40;;;;;;;3.95;1.75;;;;;;;10.48;73.97;96008.00;4980748;28;20149;-69
2024/02/22 00:30:09;;;;;;;5.97;2.60;;;;;;;10.74;71.04;95992.47;5007487;28;20431;-69
2024/02/22 00:32:36;;;;;;;4.93;2.07;;;;;;;10.75;70.84;96010.47;4988655;28;20445;-70
2024/02/22 00:35:02;;;;;;;6.40;1.80;;;;;;;10.64;72.33;96004.16;4986244;28;20341;-70
2024/02/22 00:37:27;;;;;;;5.47;2.05;;;;;;;10.62;71.23;95993.56;4988896;28;20047;-70
2024/02/22 00:39:52;;;;;;;3.97;1.50;;;;;;;10.66;71.00;95991.66;4993059;28;20046;-69
2024/02/22 00:42:18;;;;;;;3.53;1.90;;;;;;;10.62;71.71;95996.31;4982291;28;20038;-69
2024/02/22 00:44:43;;;;;;;5.20;1.98;;;;;;;10.73;70.46;95999.09;4986886;28;20475;-69
2024/02/22 00:47:08;;;;;;;3.63;2.00;;;;;;;10.73;71.01;95998.31;4997739;28;20051;-69
2024/02/22 00:49:34;;;;;;;6.90;2.10;;;;;;;10.79;70.03;95994.06;5001671;28;20092;-70
2024/02/22 00:51:59;;;;;;;4.68;2.40;;;;;;;10.75;70.65;95985.03;5003903;28;20122;-69
2024/02/22 00:54:25;;;;;;;5.82;2.50;;;;;;;10.73;70.73;95982.66;4989214;28;20053;-68
2024/02/22 00:56:50;;;;;;;5.38;2.30;;;;;;;10.64;71.18;95961.13;4998065;28;20060;-69
2024/02/22 00:59:15;;;;;;;4.10;2.30;;;;;;;10.64;71.89;95952.91;4989190;28;20751;-68
2024/02/22 01:01:41;;;;;;;4.90;2.35;;;;;;;10.58;72.08;95940.75;5007553;28;20107;-68
2024/02/22 01:04:07;;;;;;;5.97;2.30;;;;;;;10.66;70.75;95950.56;5018113;28;20746;-68
2024/02/22 01:06:33;;;;;;;9.07;2.90;;;;;;;10.66;70.59;95934.16;5023305;28;20057;-68
2024/02/22 01:09:00;;;;;;;8.43;2.80;;;;;;;10.75;70.01;95941.19;5008858;28;20049;-68
2024/02/22 01:11:25;;;;;;;6.30;2.45;;;;;;;10.75;69.45;95938.47;5005041;28;20053;-68
2024/02/22 01:13:51;;;;;;;3.92;2.30;;;;;;;10.76;69.19;95931.81;4994729;28;20057;-68
2024/02/22 01:16:18;;;;;;;6.68;2.20;;;;;;;10.69;69.56;95932.56;4981013;28;20192;-68
2024/02/22 01:18:43;;;;;;;3.97;2.30;;;;;;;10.73;69.59;95929.84;4994723;28;20057;-68
2024/02/22 01:21:09;;;;;;;4.18;2.20;;;;;;;10.73;68.99;95927.13;4995706;28;20042;-68
2024/02/22 01:23:35;;;;;;;5.13;2.20;;;;;;;10.70;69.16;95915.75;4994745;28;20099;-68
2024/02/22 01:26:00;;;;;;;4.30;2.40;;;;;;;10.73;68.77;95911.44;4995464;28;20061;-70
2024/02/22 01:28:26;;;;;;;5.28;2.08;;;;;;;10.73;68.50;95908.72;5009594;28;20333;-68
2024/02/22 01:30:51;;;;;;;5.32;2.00;;;;;;;10.77;67.22;95893.09;5010517;28;20046;-68
2024/02/22 01:33:17;;;;;;;5.78;2.28;;;;;;;10.89;66.58;95895.47;4997273;28;20053;-68
2024/02/22 01:35:42;;;;;;;4.53;2.28;;;;;;;10.76;67.37;95894.25;4995130;28;20049;-68
2024/02/22 01:38:08;;;;;;;3.20;2.00;;;;;;;10.69;67.94;95886.78;4996465;28;20050;-68
2024/02/22 01:40:33;;;;;;;6.57;2.35;;;;;;;10.83;66.43;95885.28;4991199;28;20108;-68
2024/02/22 01:42:59;;;;;;;5.88;2.20;;;;;;;10.85;66.15;95869.22;4997289;28;20431;-68
2024/02/22 01:45:24;;;;;;;4.60;2.42;;;;;;;10.90;65.46;95852.41;4994961;28;20061;-68
2024/02/22 01:47:49;;;;;;;8.32;2.67;;;;;;;10.92;65.82;95843.81;4990604;28;20100;-68
2024/02/22 01:50:16;;;;;;;7.00;2.53;;;;;;;11.00;64.81;95856.34;4994768;28;20461;-68
2024/02/22 01:52:42;;;;;;;6.82;2.78;;;;;;;10.91;65.41;95840.28;4994664;28;20045;-66
2024/02/22 01:55:09;;;;;;;7.97;2.65;;;;;;;10.90;65.88;95835.97;4997121;28;20057;-67
2024/02/22 01:57:36;;;;;;;8.02;2.70;;;;;;;10.93;65.99;95829.72;4994194;28;20057;-67
2024/02/22 02:00:04;;;;;;;4.90;2.83;;;;;;;10.90;66.99;95830.50;4995649;28;20111;-68
2024/02/22 02:02:29;;;;;;;5.70;3.17;;;;;;;10.89;67.10;95835.22;5013662;28;20054;-68
2024/02/22 02:04:55;;;;;;;4.60;2.60;;;;;;;10.81;68.16;95833.63;4995599;28;20050;-68
2024/02/22 02:07:21;;;;;;;7.15;2.50;;;;;;;10.85;68.20;95834.41;4978639;28;20517;-69
2024/02/22 02:09:46;;;;;;;12.95;3.55;;;;;;;10.84;67.87;95805.47;4995493;28;20407;-68
2024/02/22 02:12:13;;;;;;;7.82;2.67;;;;;;;10.79;69.52;95825.00;4994427;28;20057;-69
2024/02/22 02:14:38;;;;;;;4.20;2.58;;;;;;;10.75;70.56;95818.75;5003273;28;20184;-68
2024/02/22 02:17:03;;;;;;;4.72;2.80;;;;;;;10.73;70.69;95834.78;4997382;28;20070;-69
2024/02/22 02:19:30;;;;;;;4.07;2.30;;;;;;;10.70;71.42;95819.91;4990426;28;20038;-68
2024/02/22 02:22:21;;;;;;;6.45;2.65;;;;;;;10.70;71.34;95808.94;4982283;28;20039;-67
2024/02/22 02:25:03;;;;;;;6.22;2.95;;;;;;;10.71;71.14;95815.22;5008637;28;20504;-68
2024/02/22 02:27:29;;;;;;;4.40;2.40;;;;;;;10.72;71.87;95794.88;5018703;28;20139;-68
2024/02/22 02:29:55;;;;;;;5.30;2.95;;;;;;;10.72;71.55;95808.56;5012708;28;20041;-68
2024/02/22 02:32:20;;;;;;;5.72;2.50;;;;;;;10.64;72.84;95804.25;5016776;28;20553;-68
2024/02/22 02:34:45;;;;;;;5.93;3.10;;;;;;;10.59;73.69;95791.72;5021303;28;20199;-68
2024/02/22 02:37:11;;;;;;;5.72;2.60;;;;;;;10.55;74.53;95793.66;5014735;28;20064;-67
2024/02/22 02:39:37;;;;;;;4.72;2.40;;;;;;;10.47;75.40;95787.41;5016633;28;20107;-69
2024/02/22 02:42:03;;;;;;;6.45;2.67;;;;;;;10.46;76.55;95783.09;5012002;28;20061;-68
2024/02/22 02:44:28;;;;;;;5.50;2.80;;;;;;;10.42;76.77;95785.03;5019868;28;20064;-69
2024/02/22 02:46:54;;;;;;;5.43;2.40;;;;;;;10.35;78.61;95771.31;5011887;28;20049;-71
2024/02/22 02:49:19;;;;;;;5.72;2.40;;;;;;;10.29;79.95;95778.34;4997237;28;20046;-69
2024/02/22 02:51:47;;;;;;;4.95;2.80;;;;;;;10.25;80.43;95764.63;5014718;28;20045;-70
2024/02/22 02:54:12;;;;;;;4.85;2.80;;;;;;;10.24;81.06;95768.53;5019195;28;20579;-69
2024/02/22 02:56:38;;;;;;;6.38;3.30;;;;;;;10.21;81.94;95776.72;5021022;28;20132;-70
2024/02/22 02:59:03;;;;;;;5.13;2.85;;;;;;;10.16;83.26;95766.97;5007306;28;20105;-69
2024/02/22 03:01:29;;;;;;;4.97;2.80;;;;;;;10.10;84.44;95765.75;5001323;28;20056;-71
2024/02/22 03:03:55;;;;;;;5.50;2.50;;;;;;;10.06;84.89;95773.19;5014622;28;20144;-67
2024/02/22 03:06:20;;;;;;;5.50;2.70;;;;;;;10.03;85.71;95776.69;5015523;28;20430;-67
2024/02/22 03:08:45;;;;;;;8.10;2.70;;;;;;;10.01;86.48;95777.09;5016469;28;20045;-69
2024/02/22 03:11:11;;;;;;;4.90;2.78;;;;;;;10.01;87.30;95773.53;5003419;28;20041;-69
2024/02/22 03:13:36;;;;;;;6.30;2.60;;;;;;;10.01;87.33;95770.81;5010898;28;20038;-67
2024/02/22 03:16:02;;;;;;;4.60;2.88;;;;;;;10.00;87.30;95766.53;5017683;28;20069;-68
2024/02/22 03:18:27;;;;;;;5.18;2.60;;;;;;;10.00;88.24;95758.31;5010330;28;20428;-68
2024/02/22 03:20:53;;;;;;;4.57;2.67;;;;;;;9.91;89.04;95753.19;5011720;28;20049;-67
2024/02/22 03:23:18;;;;;;;8.75;3.17;;;;;;;9.87;90.19;95752.41;5013626;28;20076;-66
2024/02/22 03:25:44;;;;;;;6.28;2.85;;;;;;;9.87;90.12;95744.22;5022338;28;20058;-66
2024/02/22 03:28:12;;;;;;;6.80;3.00;;;;;;;9.86;90.79;95745.38;5023496;28;20053;-67
2024/02/22 03:30:39;;;;;;;5.50;2.80;;;;;;;9.80;91.90;95736.75;5011199;28;20403;-66
2024/02/22 03:33:05;;;;;;;9.20;2.80;;;;;;;9.82;91.75;95741.84;5024313;28;20042;-66
2024/02/22 03:35:30;;;;;;;9.93;2.80;;;;;;;9.83;92.04;95738.72;5022351;28;20466;-66
2024/02/22 03:37:56;;;;;;;6.45;2.70;;;;;;;9.77;93.55;95738.28;5019091;28;20706;-66
2024/02/22 03:40:21;;;;;;;4.22;2.47;;;;;;;9.77;93.71;95737.50;5015343;28;21031;-66
2024/02/22 03:42:47;;;;;;;7.00;2.67;;;;;;;9.78;93.85;95725.41;5018675;28;20538;-67
2024/02/22 03:45:13;;;;;;;5.05;2.67;;;;;;;9.81;94.04;95719.16;5006657;28;20619;-69
2024/02/22 03:47:38;;;;;;;8.30;3.15;;;;;;;9.82;93.59;95719.97;5020245;28;20488;-67
2024/02/22 03:50:04;;;;;;;7.55;2.80;;;;;;;9.82;93.97;95717.22;5015187;28;20053;-67
2024/02/22 03:52:30;;;;;;;4.82;2.85;;;;;;;9.84;94.47;95714.88;5019516;28;20487;-66
2024/02/22 03:54:56;;;;;;;7.45;2.63;;;;;;;9.74;96.15;95717.19;5020090;28;20057;-67
2024/02/22 03:57:21;;;;;;;4.85;2.63;;;;;;;9.72;98.02;95711.34;5014823;28;20631;-67
2024/02/22 03:59:47;;;;;;;7.45;2.50;;;;;;;9.72;99.78;95714.06;5019297;28;20049;-67
2024/02/22 04:02:12;;;;;;;5.30;2.20;;;;;;;9.66;100.00;95712.09;5013540;28;20423;-67
2024/02/22 04:04:38;;;;;;;6.88;2.47;;;;;;;9.64;100.00;95714.44;5002234;28;20045;-67
2024/02/22 04:07:04;;;;;;;6.38;2.70;;;;;;;9.60;100.00;95708.94;5006380;28;20563;-67
2024/02/22 04:09:29;;;;;;;4.45;2.60;;;;;;;9.60;100.00;95724.53;5011212;28;20137;-67
2024/02/22 04:11:55;;;;;;;8.32;2.70;;;;;;;9.46;100.00;95714.34;5018677;28;20072;-66
2024/02/22 04:14:20;;;;;;;4.65;2.70;;;;;;;9.35;100.00;95717.81;5012949;28;20447;-67
2024/02/22 04:16:46;;;;;;;4.85;2.20;;;;;;;9.21;100.00;95709.53;5011550;28;20403;-67
2024/02/22 04:19:11;;;;;;;5.32;2.42;;;;;;;9.12;100.00;95701.66;4998322;28;20573;-66
2024/02/22 04:21:41;;;;;;;5.25;2.30;;;;;;;9.05;100.00;95707.09;5001678;28;20511;-69
2024/02/22 04:24:07;;;;;;;3.65;2.40;;;;;;;9.03;100.00;95703.97;5008587;28;20042;-69
2024/02/22 04:26:45;;;;;;;4.90;2.30;;;;;;;8.92;100.00;95712.06;5000038;28;20052;-67
2024/02/22 04:29:10;;;;;;;5.50;2.58;;;;;;;8.80;100.00;95709.66;4976467;28;20042;-67
2024/02/22 04:31:37;;;;;;;4.35;2.83;;;;;;;8.64;100.00;95709.91;5018475;28;20080;-67
2024/02/22 04:34:02;;;;;;;7.00;2.67;;;;;;;8.46;100.00;95701.56;5006547;28;20077;-68
2024/02/22 04:36:27;;;;;;;4.60;2.80;;;;;;;8.34;100.00;95702.63;5009217;28;20563;-67
2024/02/22 04:38:54;;;;;;;7.50;2.47;;;;;;;8.25;100.00;95710.34;5019587;28;20052;-68
2024/02/22 04:41:22;;;;;;;4.70;3.05;;;;;;;8.10;100.00;95708.63;5013748;28;20116;-68
2024/02/22 04:43:48;;;;;;;5.20;2.72;;;;;;;8.04;100.00;95711.69;5002281;28;20042;-68
2024/02/22 04:46:13;;;;;;;6.13;2.97;;;;;;;7.94;100.00;95712.38;5006596;28;20053;-67
2024/02/22 04:48:39;;;;;;;5.93;2.83;;;;;;;7.92;100.00;95725.56;5002139;28;20072;-67
2024/02/22 04:51:04;;;;;;;6.57;3.30;;;;;;;7.88;100.00;95713.06;5007431;28;20527;-67
2024/02/22 04:53:29;;;;;;;5.97;3.08;;;;;;;7.75;100.00;95715.28;5007061;28;20540;-67
2024/02/22 04:55:55;;;;;;;5.40;2.60;;;;;;;7.65;100.00;95711.25;4998631;28;20050;-67
2024/02/22 04:58:20;;;;;;;5.03;3.03;;;;;;;7.61;100.00;95711.22;5010250;28;20518;-67
2024/02/22 05:00:46;;;;;;;8.65;2.97;;;;;;;7.47;100.00;95711.03;4996984;28;20119;-67
2024/02/22 05:03:12;;;;;;;5.47;2.95;;;;;;;7.45;100.00;95708.72;5009674;28;20141;-67
2024/02/22 05:05:39;;;;;;;8.23;3.08;;;;;;;7.39;100.00;95706.66;5009654;28;20272;-67
2024/02/22 05:08:04;;;;;;;6.40;3.13;;;;;;;7.43;100.00;95708.28;4990144;28;20057;-67
2024/02/22 05:10:31;;;;;;;5.93;3.20;;;;;;;7.38;100.00;95702.38;5016258;28;20049;-68
2024/02/22 05:12:57;;;;;;;7.00;3.00;;;;;;;7.37;100.00;95706.25;5012926;28;20396;-67
2024/02/22 05:15:22;;;;;;;4.75;2.60;;;;;;;7.36;100.00;95701.97;5002900;28;20128;-67
2024/02/22 05:17:48;;;;;;;5.97;2.85;;;;;;;7.40;100.00;95700.06;4999343;28;20088;-67
2024/02/22 05:20:13;;;;;;;4.10;2.60;;;;;;;7.33;100.00;95700.75;5010247;28;20049;-67
2024/02/22 05:22:39;;;;;;;5.50;2.70;;;;;;;7.32;100.00;95690.22;5015960;28;20459;-68
2024/02/22 05:25:08;;;;;;;5.80;3.25;;;;;;;7.26;100.00;95684.34;5001040;28;20061;-68
2024/02/22 05:27:34;;;;;;;7.82;3.55;;;;;;;7.24;100.00;95689.38;5019240;28;20037;-66
2024/02/22 05:29:59;;;;;;;7.70;2.88;;;;;;;7.32;100.00;95691.00;5009445;28;20057;-67
2024/02/22 05:32:24;;;;;;;5.82;3.58;;;;;;;7.30;100.00;95696.06;5005207;28;20056;-69
2024/02/22 05:34:50;;;;;;;7.90;3.30;;;;;;;7.28;100.00;95687.47;5021446;28;20521;-67
2024/02/22 05:37:16;;;;;;;8.25;3.75;;;;;;;7.27;100.00;95681.25;5017422;28;20111;-70
2024/02/22 05:39:41;;;;;;;6.65;2.90;;;;;;;7.22;100.00;95678.03;5021283;28;20048;-67
2024/02/22 05:42:07;;;;;;;6.75;2.95;;;;;;;7.18;100.00;95669.81;5010543;28;20158;-66
2024/02/22 05:44:32;;;;;;;7.85;3.47;;;;;;;7.07;100.00;95663.47;5013230;28;20144;-67
2024/02/22 05:46:57;;;;;;;6.82;3.40;;;;;;;7.05;100.00;95660.31;5019944;28;20049;-67
2024/02/22 05:49:23;;;;;;;6.88;3.20;;;;;;;7.06;100.00;95664.63;4998969;28;20414;-66
2024/02/22 05:51:48;;;;;;;7.50;4.07;;;;;;;7.05;100.00;95663.81;5009793;28;20464;-67
2024/02/22 05:54:14;;;;;;;5.95;3.42;;;;;;;7.07;100.00;95666.97;5013289;28;20049;-66
2024/02/22 05:56:39;;;;;;;7.60;3.78;;;;;;;7.08;100.00;95667.75;5021294;28;20396;-69
2024/02/22 05:59:06;;;;;;;9.88;3.53;;;;;;;7.12;100.00;95657.69;5011102;28;20080;-68
2024/02/22 06:01:32;;;;;;;4.38;2.75;;;;;;;7.05;100.00;95652.94;5018139;28;20144;-66
2024/02/22 06:03:58;;;;;;;6.35;3.60;;;;;;;7.09;100.00;95644.81;5014495;28;20259;-66
2024/02/22 06:06:23;;;;;;;7.72;3.25;;;;;;;7.01;100.00;95649.38;5016342;28;20148;-68
2024/02/22 06:08:48;;;;;;;5.85;3.53;;;;;;;6.97;100.00;95645.03;5017653;28;20084;-68
2024/02/22 06:11:18;;;;;;;5.53;3.15;;;;;;;7.01;100.00;95635.00;5003923;28;20041;-69
2024/02/22 06:13:43;;;;;;;4.78;2.95;;;;;;;7.03;100.00;95633.47;5004862;28;20049;-68
2024/02/22 06:16:09;;;;;;;8.35;3.40;;;;;;;7.09;100.00;95623.03;5015963;28;20618;-68
2024/02/22 06:18:35;;;;;;;7.43;3.40;;;;;;;7.03;100.00;95624.53;5004412;28;20385;-68
2024/02/22 06:21:02;;;;;;;5.25;3.03;;;;;;;7.05;100.00;95624.94;5019629;28;20720;-67
2024/02/22 06:23:28;;;;;;;5.72;3.38;;;;;;;6.98;100.00;95624.84;5002804;28;20041;-68
2024/02/22 06:25:54;;;;;;;7.88;3.55;;;;;;;6.97;100.00;95615.09;5017406;28;20536;-68
2024/02/22 06:28:21;;;;;;;5.25;3.05;;;;;;;7.01;100.00;95622.16;5016377;28;20056;-68
2024/02/22 06:30:46;;;;;;;7.30;3.40;;;;;;;6.94;100.00;95622.06;5020726;28;20050;-68
2024/02/22 06:33:12;;;;;;;7.18;3.25;;;;;;;6.92;100.00;95610.78;4995821;28;20046;-66
2024/02/22 06:35:37;;;;;;;6.13;3.08;;;;;;;6.85;100.00;95625.06;5021112;28;20557;-66
2024/02/22 06:38:03;;;;;;;4.65;3.15;;;;;;;6.88;100.00;95620.84;5023557;28;20128;-66
2024/02/22 06:40:29;;;;;;;6.18;3.38;;;;;;;6.91;100.00;95622.03;5020427;28;20103;-67
2024/02/22 06:42:55;;;;;;;5.32;3.53;;;;;;;6.88;100.00;95629.00;5015369;28;20061;-67
2024/02/22 06:45:23;;;;;;;7.97;3.58;;;;;;;6.94;100.00;95618.56;4995596;28;20057;-68
2024/02/22 06:47:50;;;;;;;6.75;3.40;;;;;;;6.89;100.00;95617.72;5017083;28;20104;-67
2024/02/22 06:50:16;;;;;;;9.63;3.20;;;;;;;6.82;100.00;95628.50;5010425;28;20092;-66
2024/02/22 06:52:42;;;;;;;7.25;3.30;;;;;;;6.76;100.00;95621.84;5008433;28;20089;-67
2024/02/22 06:55:08;;;;;;;6.32;3.60;;;;;;;6.80;100.00;95613.72;5001869;28;20037;-66
2024/02/22 06:57:34;;;;;;;7.25;3.63;;;;;;;6.81;100.00;95613.34;5019676;28;20041;-67
2024/02/22 06:59:59;;;;;;;5.43;3.80;;;;;;;6.87;100.00;95595.53;5012112;28;20556;-67
2024/02/22 07:02:24;;;;;;;5.13;3.30;;;;;;;6.98;100.00;95587.50;5014799;28;20052;-67
2024/02/22 07:04:50;;;;;;;9.95;3.47;;;;;;;7.02;100.00;95574.72;5012417;28;20045;-67
2024/02/22 07:07:15;;;;;;;6.35;3.40;;;;;;;6.97;100.00;95580.50;5006913;28;20493;-68
2024/02/22 07:09:41;;;;;;;6.72;3.80;;;;;;;6.94;100.00;95580.47;5018645;28;20041;-67
2024/02/22 07:12:07;;;;;;;8.52;3.80;;;;;;;6.93;100.00;95578.88;5016191;28;20057;-66
2024/02/22 07:14:33;;;;;;;7.28;3.80;;;;;;;6.97;100.00;95566.91;5004367;28;20125;-67
2024/02/22 07:16:59;;;;;;;11.23;4.43;;;;;;;7.06;100.00;95558.44;5020215;28;20061;-67
2024/02/22 07:19:24;;;;;;;7.72;3.63;;;;;;;7.03;100.00;95562.69;5006504;28;20510;-67
2024/02/22 07:21:49;;;;;;;6.40;3.60;;;;;;;7.07;100.00;95565.44;5020391;28;20048;-67
2024/02/22 07:24:16;;;;;;;7.72;3.20;;;;;;;6.99;100.00;95561.84;5002766;28;20080;-67
2024/02/22 07:26:42;;;;;;;6.47;3.67;;;;;;;6.97;100.00;95560.66;5011391;28;20049;-67
2024/02/22 07:29:07;;;;;;;7.50;3.92;;;;;;;7.01;100.00;95556.81;5013441;28;20129;-66
2024/02/22 07:31:33;;;;;;;6.03;3.60;;;;;;;6.99;100.00;95561.84;5019374;28;20048;-69
2024/02/22 07:33:58;;;;;;;7.53;3.72;;;;;;;6.97;100.00;95556.00;5010255;28;20057;-69
2024/02/22 07:36:24;;;;;;;10.82;4.15;;;;;;;6.99;100.00;95553.69;5013823;28;20495;-70
2024/02/22 07:38:49;;;;;;;9.10;4.57;;;;;;;6.96;100.00;95550.94;5006264;28;20680;-69
2024/02/22 07:41:15;;;;;;;8.32;3.83;;;;;;;6.96;100.00;95553.66;5012026;28;20053;-68
2024/02/22 07:43:45;;;;;;;7.90;3.90;;;;;;;6.98;100.00;95549.38;5028382;28;20077;-68
2024/02/22 07:46:11;;;;;;;;;;;;;;;6.97;100.00;95552.47;5021453;28;20113;-67
2024/02/22 07:48:39;;;;;;;8.77;4.32;;;;;;;7.02;100.00;95555.69;5009242;28;19921;-67
2024/02/22 07:51:06;;;;;;;10.23;4.20;;;;;;;7.07;100.00;95552.59;5013580;28;20048;-68
2024/02/22 07:53:33;;;;;;;8.50;3.88;;;;;;;7.16;100.00;95557.75;5017708;28;20136;-68
2024/02/22 07:55:59;;;;;;;7.57;3.80;;;;;;;7.14;100.00;95551.13;5018657;28;20041;-68
2024/02/22 07:58:25;;;;;;;7.80;4.32;;;;;;;7.16;100.00;95544.16;5008362;28;20112;-68
2024/02/22 08:00:50;;;;;;;7.68;4.30;;;;;;;7.12;100.00;95545.28;5018476;28;20655;-69
2024/02/22 08:03:15;;;;;;;20.00;11.27;;;;;;;7.23;100.00;95538.00;5013893;28;20056;-69
2024/02/22 08:05:41;;;;;;;7.90;5.47;;;;;;;7.33;100.00;95536.53;5027245;28;20482;-68
2024/02/22 08:08:06;;;;;;;7.38;4.22;;;;;;;7.44;100.00;95535.50;5021153;28;20125;-67
2024/02/22 08:10:32;;;;;;;6.63;4.25;;;;;;;7.43;100.00;95535.88;5036059;28;20069;-68
2024/02/22 08:12:57;;;;;;;7.63;3.90;;;;;;;7.50;100.00;95527.75;5011937;28;20045;-69
2024/02/22 08:15:22;;;;;;;11.25;4.47;;;;;;;7.62;100.00;95529.44;5014245;28;20064;-69
2024/02/22 08:17:48;;;;;;;10.85;4.38;;;;;;;7.65;100.00;95532.19;4997617;28;20664;-69
2024/02/22 08:20:14;;;;;;;10.32;4.60;;;;;;;7.79;100.00;95523.34;5008206;28;20068;-68
2024/02/22 08:22:41;;;;;;;10.48;4.25;;;;;;;7.82;100.00;95532.72;5017531;28;20045;-68
2024/02/22 08:25:07;;;;;;;11.75;4.80;;;;;;;7.84;100.00;95533.91;4994917;28;20098;-67
2024/02/22 08:27:32;;;;;;;13.55;4.70;;;;;;;7.86;100.00;95517.16;5009621;28;20120;-68
2024/02/22 08:29:58;;;;;;;11.25;5.05;;;;;;;7.85;100.00;95523.78;5007255;28;20050;-69
2024/02/22 08:32:23;;;;;;;13.93;4.93;;;;;;;7.95;100.00;95522.31;5000003;28;20042;-66
2024/02/22 08:34:48;;;;;;;10.27;4.47;;;;;;;8.01;100.00;95521.56;5018835;28;20045;-66
2024/02/22 08:37:14;;;;;;;10.23;4.57;;;;;;;8.03;100.00;95516.53;5014213;28;20045;-68
2024/02/22 08:39:39;;;;;;;9.90;4.57;;;;;;;7.98;100.00;95516.88;5010294;28;20057;-68
2024/02/22 08:42:05;;;;;;;8.15;5.13;;;;;;;7.90;100.00;95507.06;5013472;28;20049;-67
2024/02/22 08:44:30;;;;;;;10.27;6.15;;;;;;;7.90;100.00;95507.06;5018506;28;20346;-68
2024/02/22 08:46:56;;;;;;;8.82;6.30;;;;;;;8.05;100.00;95494.34;5010639;28;20111;-68
2024/02/22 08:49:22;;;;;;;10.88;4.70;;;;;;;8.13;100.00;95490.47;5013581;28;20513;-68
2024/02/22 08:51:47;;;;;;;10.27;5.15;;;;;;;8.20;100.00;95482.34;5017436;28;20060;-67
2024/02/22 08:54:13;;;;;;;11.23;5.43;;;;;;;8.22;100.00;95493.66;5014100;28;20449;-67
2024/02/22 08:56:38;;;;;;;8.77;4.88;;;;;;;8.38;100.00;95478.94;5026840;28;20045;-68
2024/02/22 08:59:04;;;;;;;8.10;4.40;;;;;;;8.42;100.00;95475.06;5008211;28;20129;-69
2024/02/22 09:01:32;;;;;;;10.98;4.32;;;;;;;8.45;100.00;95489.16;5024036;28;20045;-68
2024/02/22 09:03:57;;;;;;;8.90;4.72;;;;;;;8.49;100.00;95487.19;5021816;28;20057;-66
2024/02/22 09:06:23;;;;;;;7.22;4.18;;;;;;;8.45;100.00;95486.41;4993263;28;20748;-66
2024/02/22 09:08:49;;;;;;;8.18;4.40;;;;;;;8.35;100.00;95479.69;5018131;28;20088;-67
2024/02/22 09:11:14;;;;;;;8.57;4.85;;;;;;;8.36;100.00;95471.13;5016815;28;20045;-66
2024/02/22 09:13:39;;;;;;;7.80;4.88;;;;;;;8.54;100.00;95470.47;5012935;28;20049;-68
2024/02/22 09:16:08;;;;;;;7.72;4.55;;;;;;;8.53;100.00;95469.66;5017652;28;20175;-69
2024/02/22 09:18:34;;;;;;;8.40;5.07;;;;;;;8.70;100.00;95459.22;5020344;28;20050;-68
2024/02/22 09:20:59;;;;;;;6.93;4.50;;;;;;;8.93;100.00;95453.44;5014384;28;20053;-68
2024/02/22 09:23:25;;;;;;;11.85;4.88;;;;;;;9.06;100.00;95445.69;5017685;28;20081;-68
2024/02/22 09:25:52;;;;;;;8.50;5.00;;;;;;;9.16;100.00;95453.09;5017763;28;20136;-68
2024/02/22 09:28:18;;;;;;;9.27;4.80;;;;;;;9.08;100.00;95451.53;5007971;28;20105;-68
2024/02/22 09:30:43;;;;;;;7.35;4.93;;;;;;;8.78;100.00;95456.13;5020982;28;20514;-68
2024/02/22 09:33:10;;;;;;;12.27;5.20;;;;;;;8.61;100.00;95451.41;5011683;28;20050;-68
2024/02/22 09:35:36;;;;;;;8.52;4.93;;;;;;;8.68;100.00;95437.78;5011261;28;20510;-66
2024/02/22 09:38:02;;;;;;;10.63;5.82;;;;;;;8.57;100.00;95426.00;5019173;28;20041;-67
2024/02/22 09:40:28;;;;;;;10.55;5.80;;;;;;;8.65;100.00;95424.13;5019218;28;20050;-67
2024/02/22 09:42:54;;;;;;;9.40;5.28;;;;;;;8.57;100.00;95415.91;5021183;28;20033;-66
2024/02/22 09:45:19;;;;;;;9.73;5.97;;;;;;;8.23;100.00;95409.88;5010616;28;20074;-66
2024/02/22 09:47:45;;;;;;;11.60;6.03;;;;;;;8.29;100.00;95416.53;5022714;28;20150;-67
2024/02/22 09:50:11;;;;;;;10.23;5.90;;;;;;;8.19;100.00;95409.88;5021700;28;20034;-66
2024/02/22 09:52:37;;;;;;;9.25;5.20;;;;;;;8.30;100.00;95409.94;5020880;28;20180;-66
2024/02/22 09:55:03;;;;;;;10.95;5.38;;;;;;;8.35;100.00;95427.84;5017187;28;20060;-67
2024/02/22 09:57:29;;;;;;;13.73;6.13;;;;;;;8.52;100.00;95420.97;5036024;28;20418;-66
2024/02/22 09:59:55;;;;;;;9.32;5.35;;;;;;;8.53;100.00;95419.78;5026037;28;20455;-67
2024/02/22 10:02:22;;;;;;;8.13;4.85;;;;;;;8.71;100.00;95411.63;5008546;28;20050;-67
2024/02/22 10:04:55;;;;;;;9.95;4.88;;;;;;;8.64;100.00;95409.66;5020443;28;20060;-67
2024/02/22 10:07:25;;;;;;;8.18;4.68;;;;;;;8.53;100.00;95404.16;5016375;28;20064;-67
2024/02/22 10:09:51;;;;;;;7.63;4.13;;;;;;;8.45;100.00;95415.47;5009218;28;20523;-69
2024/02/22 10:12:23;;;;;;;8.00;4.78;;;;;;;8.58;100.00;95413.94;5012376;28;20140;-66
2024/02/22 10:14:48;;;;;;;9.45;4.50;;;;;;;8.69;100.00;95411.25;5010143;28;20038;-66
2024/02/22 10:17:19;;;;;;;8.63;5.22;;;;;;;8.60;100.00;95420.56;5001462;28;20053;-67
2024/02/22 10:20:00;;;;;;;8.02;4.57;;;;;;;8.64;100.00;95411.63;5019694;28;20049;-66
2024/02/22 10:22:27;;;;;;;10.15;4.97;;;;;;;8.69;100.00;95389.41;5015091;28;20496;-68
2024/02/22 10:24:54;;;;;;;8.48;4.55;;;;;;;8.58;100.00;95390.16;5012808;28;20049;-66
2024/02/22 10:27:25;;;;;;;6.82;4.45;;;;;;;8.63;100.00;95371.88;5008121;28;20034;-67
2024/02/22 10:29:53;;;;;;;6.45;4.15;;;;;;;8.64;100.00;95352.34;5001655;28;20038;-67
2024/02/22 10:32:19;;;;;;;6.75;4.07;;;;;;;8.72;100.00;95337.56;5007526;28;20045;-67
2024/02/22 10:34:49;;;;;;;7.57;4.32;;;;;;;8.70;100.00;95330.94;5020153;28;20061;-66
2024/02/22 10:37:14;;;;;;;;;;;;;;;8.85;100.00;95316.13;5016482;28;20042;-67
2024/02/22 10:39:41;;;;;;;7.50;4.32;;;;;;;9.09;100.00;95311.84;5020456;28;19970;-67
2024/02/22 10:42:09;;;;;;;8.25;4.38;;;;;;;9.19;100.00;95313.78;5014962;28;20033;-67
2024/02/22 10:44:34;;;;;;;5.72;3.78;;;;;;;9.08;100.00;95313.00;5003447;28;20042;-66
2024/02/22 10:47:01;;;;;;;7.63;3.97;;;;;;;9.15;100.00;95309.50;5020480;28;20052;-66
2024/02/22 10:49:31;;;;;;;7.10;4.22;;;;;;;9.17;100.00;95315.34;5001356;28;20111;-66
2024/02/22 10:51:59;;;;;;;6.63;4.05;;;;;;;9.32;100.00;95319.63;5011853;28;20037;-66
2024/02/22 10:54:29;;;;;;;7.07;4.25;;;;;;;9.44;100.00;95317.69;5015864;28;20058;-67
2024/02/22 10:56:56;;;;;;;7.03;4.13;;;;;;;9.38;100.00;95320.00;5012466;28;20622;-67
2024/02/22 10:59:22;;;;;;;6.20;3.67;;;;;;;9.41;100.00;95316.50;5015551;28;20057;-66
2024/02/22 11:01:50;;;;;;;5.85;3.65;;;;;;;9.34;100.00;95305.56;5022944;28;20041;-66
2024/02/22 11:04:16;;;;;;;6.13;3.45;;;;;;;9.27;100.00;95298.16;5020963;28;20045;-66
2024/02/22 11:06:43;;;;;;;6.75;3.83;;;;;;;9.37;100.00;95299.31;5012036;28;20049;-66
2024/02/22 11:09:17;;;;;;;8.63;3.60;;;;;;;9.25;100.00;95291.53;5008154;28;20042;-66
2024/02/22 11:11:43;;;;;;;5.00;3.72;;;;;;;9.34;100.00;95297.38;5017667;28;20069;-66
2024/02/22 11:14:09;;;;;;;5.97;4.50;;;;;;;9.27;100.00;95289.19;5015858;28;20507;-66
2024/02/22 11:16:40;;;;;;;10.43;4.20;;;;;;;9.34;100.00;95287.22;5020063;28;20041;-66
2024/02/22 11:19:12;;;;;;;5.20;3.60;;;;;;;9.34;100.00;95272.78;4993883;28;20045;-67
2024/02/22 11:21:39;;;;;;;5.53;3.67;;;;;;;9.59;100.00;95264.53;5017686;28;20048;-67
2024/02/22 11:24:12;;;;;;;5.68;4.18;;;;;;;9.61;100.00;95256.69;5011211;28;20077;-66
2024/02/22 11:26:39;;;;;;;5.50;3.72;;;;;;;9.41;100.00;95247.41;5018792;28;20535;-66
2024/02/22 11:29:04;;;;;;;6.50;3.92;;;;;;;9.19;100.00;95237.28;5005389;28;20045;-66